Time;durP1;ratioP1;P1;durP2;ratioP2;P2;SDS_P1;SDS_P2;PMS_P1;PMS_P2;Temp;Humidity;BMP_temperature;BMP_pressure;BME280_temperature;BME280_humidity;BME280_pressure;Samples;Min_cycle;Max_cycle;Signal;HPM_P1;HPM_P2
2022/05/13 00:02:06;;;;;;;2.03;1.77;;;24.50;53.40;;;-142.21;75.84;112049.66;5049690;28;20281;-79
2022/05/13 00:04:40;;;;;;;2.13;1.50;;;24.40;53.50;;;-142.21;75.48;112049.66;5050631;28;20228;-79
2022/05/13 00:07:09;;;;;;;2.47;1.90;;;24.40;53.60;;;-142.21;77.04;112049.66;5040634;28;20302;-79
2022/05/13 00:12:38;;;;;;;3.97;1.77;;;24.40;54.00;;;-142.21;76.66;112049.66;5041806;28;20217;-79
2022/05/13 00:15:08;;;;;;;2.27;1.40;;;24.30;54.10;;;-142.21;77.42;112049.66;5038340;28;20219;-79
2022/05/13 00:17:44;;;;;;;2.07;1.80;;;24.30;54.20;;;-142.21;77.85;112049.66;5054032;28;20616;-80
2022/05/13 00:20:18;;;;;;;1.77;1.50;;;24.30;54.10;;;-142.21;77.89;112049.66;5046472;28;20277;-79
2022/05/13 00:22:48;;;;;;;1.60;1.50;;;24.30;54.20;;;-142.21;78.99;112049.66;5054975;28;20718;-78
2022/05/13 00:25:20;;;;;;;3.43;2.03;;;24.30;54.20;;;-142.21;79.57;112049.66;5055461;28;20297;-79
2022/05/13 00:27:48;;;;;;;3.13;1.83;;;24.30;54.60;;;-142.21;79.01;112049.66;5053693;28;20280;-76
2022/05/13 00:30:16;;;;;;;2.10;1.60;;;24.30;54.50;;;-142.21;79.18;112049.66;5047073;28;20210;-79
2022/05/13 00:32:46;;;;;;;1.80;1.70;;;24.30;54.50;;;-142.21;80.62;112049.66;5055247;28;20290;-79
2022/05/13 00:35:13;;;;;;;2.87;2.10;;;24.30;54.60;;;-142.21;79.55;112049.66;5054786;28;20216;-79
2022/05/13 00:37:41;;;;;;;2.83;1.77;;;24.30;54.60;;;-142.21;79.14;112049.66;5035258;28;20294;-79
2022/05/13 00:40:10;;;;;;;5.13;1.60;;;24.30;54.60;;;-142.21;77.82;112049.66;5035814;28;20208;-78
2022/05/13 00:42:38;;;;;;;2.10;1.83;;;24.20;55.10;;;-142.21;78.30;112049.66;5035149;28;20261;-78
2022/05/13 00:45:08;;;;;;;3.37;1.60;;;24.30;54.40;;;-142.21;78.04;112049.66;5035382;28;20240;-77
2022/05/13 00:47:35;;;;;;;3.30;1.80;;;24.20;54.30;;;-142.21;77.90;112049.66;5050318;28;20243;-79
2022/05/13 00:50:06;;;;;;;3.87;2.80;;;24.20;54.20;;;-142.21;79.04;112049.66;5055148;28;20217;-78
2022/05/13 00:52:34;;;;;;;2.70;2.17;;;24.20;54.60;;;-142.21;78.48;112049.66;5055161;28;20651;-76
2022/05/13 00:55:11;;;;;;;2.20;2.00;;;24.10;54.70;;;-142.21;78.74;112049.66;5054965;28;20211;-77
2022/05/13 00:57:40;;;;;;;2.70;1.60;;;24.10;54.60;;;-142.21;79.35;112049.66;5054645;28;20196;-79
2022/05/13 01:00:14;;;;;;;3.13;1.70;;;24.10;54.60;;;-142.21;80.06;112049.66;5055225;28;20305;-79
2022/05/13 01:02:43;;;;;;;4.73;1.80;;;24.10;54.80;;;-142.21;79.79;112049.66;5054673;28;20215;-79
2022/05/13 01:05:16;;;;;;;2.27;2.10;;;24.10;54.80;;;-142.21;80.21;112049.66;5054970;28;20717;-79
2022/05/13 01:07:43;;;;;;;2.07;1.80;;;24.10;55.10;;;-142.21;80.85;112049.66;5054758;28;20296;-79
2022/05/13 01:10:17;;;;;;;3.53;1.60;;;24.10;55.00;;;-142.21;79.83;112049.66;5055026;28;20251;-77
2022/05/13 01:12:50;;;;;;;4.13;2.10;;;24.10;55.00;;;-142.21;79.48;112049.66;5054412;28;20272;-80
2022/05/13 01:15:25;;;;;;;4.20;2.03;;;24.10;54.80;;;-142.21;79.95;112049.66;5055065;28;20190;-79
2022/05/13 01:18:07;;;;;;;2.60;1.87;;;24.10;54.90;;;-142.21;80.26;112049.66;5054813;28;20571;-77
2022/05/13 01:20:42;;;;;;;2.10;1.90;;;24.10;54.90;;;-142.21;80.31;112049.66;5054250;28;20572;-79
2022/05/13 01:23:17;;;;;;;2.47;1.60;;;24.10;55.00;;;-142.21;82.11;112049.66;5054055;28;20234;-79
2022/05/13 01:25:47;;;;;;;2.47;1.90;;;24.10;55.60;;;-142.21;80.34;112049.66;5054156;28;20197;-79
2022/05/13 01:28:18;;;;;;;2.10;1.90;;;24.00;55.10;;;-142.21;81.82;112049.66;5054821;28;20186;-78
2022/05/13 01:30:50;;;;;;;4.80;2.13;;;24.00;55.40;;;-142.21;81.14;112049.66;5054270;28;20194;-79
2022/05/13 01:33:17;;;;;;;4.17;2.13;;;24.00;55.40;;;-142.21;82.07;112049.66;5054813;28;20230;-78
2022/05/13 01:35:50;;;;;;;3.30;2.43;;;24.00;55.50;;;-142.21;81.66;112049.66;5053944;28;20722;-79
2022/05/13 01:38:22;;;;;;;3.43;1.90;;;23.90;55.70;;;-142.21;81.26;112049.66;5054422;28;20212;-78
2022/05/13 01:40:50;;;;;;;3.07;1.97;;;24.00;55.70;;;-142.21;82.25;112049.66;5054261;28;20692;-78
2022/05/13 01:43:17;;;;;;;3.33;2.17;;;24.00;55.70;;;-142.21;81.77;112049.66;5054164;28;20213;-79
2022/05/13 01:45:44;;;;;;;1.80;1.70;;;23.80;55.60;;;-142.21;81.14;112049.66;5053930;28;20638;-79
2022/05/13 01:48:12;;;;;;;3.33;2.00;;;23.80;55.70;;;-142.21;80.56;112049.66;5054406;28;20301;-79
2022/05/13 01:50:40;;;;;;;2.30;2.00;;;23.80;55.30;;;-142.21;80.50;112049.66;5053630;28;20212;-79
2022/05/13 01:53:09;;;;;;;3.03;1.90;;;23.90;55.30;;;-142.21;80.43;112049.66;5053907;28;20210;-78
2022/05/13 01:55:42;;;;;;;2.87;2.00;;;23.90;55.20;;;-142.21;81.03;112049.66;5054265;28;20300;-78
2022/05/13 01:58:10;;;;;;;3.43;2.10;;;23.90;55.30;;;-142.21;81.28;112049.66;5053841;28;20284;-79
2022/05/13 02:00:37;;;;;;;2.37;1.90;;;23.90;55.40;;;-142.21;81.49;112049.66;5054360;28;20296;-78
2022/05/13 02:05:49;;;;;;;2.77;1.87;;;23.90;55.60;;;-142.21;81.42;112049.66;5053228;28;20190;-79
2022/05/13 02:08:16;;;;;;;4.03;2.10;;;23.80;55.20;;;-142.21;82.85;112049.66;5053793;28;20213;-79
2022/05/13 02:10:46;;;;;;;4.47;1.93;;;23.80;55.40;;;-142.21;82.23;112049.66;5053252;28;20650;-78
2022/05/13 02:13:15;;;;;;;2.73;2.00;;;23.70;55.90;;;-142.21;81.87;112049.66;5053521;28;20227;-78
2022/05/13 02:15:42;;;;;;;2.27;1.67;;;23.70;55.60;;;-142.21;82.63;112049.66;5052909;28;20212;-79
2022/05/13 02:18:11;;;;;;;3.50;2.10;;;23.70;55.50;;;-142.21;81.92;112049.66;5053535;28;20256;-79
2022/05/13 02:20:40;;;;;;;3.13;2.07;;;23.80;55.60;;;-142.21;79.47;112049.66;5053914;28;20281;-79
2022/05/13 02:23:08;;;;;;;3.13;2.00;;;23.70;55.10;;;-142.21;78.75;112049.66;5053416;28;20252;-79
2022/05/13 02:25:35;;;;;;;2.57;2.13;;;23.70;55.00;;;-142.21;77.76;112049.66;5053377;28;20300;-78
2022/05/13 02:28:05;;;;;;;3.23;2.13;;;23.70;54.60;;;-142.21;77.90;112049.66;5052900;28;20307;-78
2022/05/13 02:30:33;;;;;;;4.37;1.90;;;23.70;54.50;;;-142.21;76.25;112049.66;5053288;28;20237;-78
2022/05/13 02:33:00;;;;;;;4.83;2.00;;;23.70;54.00;;;-142.21;80.12;112049.66;5052955;28;20686;-79
2022/05/13 02:35:28;;;;;;;5.27;2.30;;;23.60;54.80;;;-142.21;75.91;112049.66;5052926;28;20212;-79
2022/05/13 02:37:56;;;;;;;2.77;1.70;;;23.60;54.30;;;-142.21;75.88;112049.66;5052865;28;20198;-78
2022/05/13 02:41:11;;;;;;;2.30;2.10;;;23.60;54.00;;;-142.21;78.30;112049.66;5053395;28;20205;-80
2022/05/13 02:43:14;;;;;;;4.07;2.37;;;23.60;54.50;;;-142.21;75.79;112049.66;5033244;28;20234;-77
2022/05/13 02:45:43;;;;;;;3.07;1.87;;;23.60;54.20;;;-142.21;76.67;112049.66;5039390;28;20277;-79
2022/05/13 02:48:10;;;;;;;3.57;2.00;;;23.60;54.30;;;-142.21;77.12;112049.66;5053192;28;20245;-80
2022/05/13 02:50:39;;;;;;;3.17;2.10;;;23.60;54.20;;;-142.21;79.03;112049.66;5052497;28;20289;-80
2022/05/13 02:53:07;;;;;;;2.30;2.00;;;23.60;54.50;;;-142.21;78.91;112049.66;5068635;28;20206;-79
2022/05/13 02:55:34;;;;;;;2.70;2.00;;;23.70;54.60;;;-142.21;78.24;112049.66;5052863;28;20212;-79
2022/05/13 02:58:02;;;;;;;3.47;2.23;;;23.60;54.40;;;-142.21;78.43;112049.66;5052695;28;20293;-79
2022/05/13 03:00:30;;;;;;;2.43;1.90;;;23.60;54.40;;;-142.21;79.33;112049.66;5053349;28;20205;-79
2022/05/13 03:02:58;;;;;;;1.83;1.73;;;23.60;54.60;;;-142.21;81.13;112049.66;5052430;28;20328;-79
2022/05/13 03:05:28;;;;;;;2.27;1.90;;;23.50;55.00;;;-142.21;80.34;112049.66;5052627;28;20256;-79
2022/05/13 03:07:57;;;;;;;4.27;2.20;;;23.50;55.10;;;-142.21;78.49;112049.66;5052269;28;20649;-78
2022/05/13 03:10:24;;;;;;;3.73;2.00;;;23.50;54.40;;;-142.21;79.10;112049.66;5052875;28;20237;-77
2022/05/13 03:12:51;;;;;;;6.00;2.13;;;23.50;54.60;;;-142.21;80.15;112049.66;5052004;28;20197;-78
2022/05/13 03:15:19;;;;;;;3.63;2.27;;;23.50;54.80;;;-142.21;80.26;112049.66;5052556;28;20300;-79
2022/05/13 03:17:47;;;;;;;5.90;2.03;;;23.50;54.80;;;-142.21;78.53;112049.66;5052324;28;20293;-78
2022/05/13 03:20:17;;;;;;;2.50;2.00;;;23.50;54.70;;;-142.21;79.65;112049.66;5052344;28;20221;-79
2022/05/13 03:22:45;;;;;;;4.67;2.23;;;23.50;55.10;;;-142.21;79.40;112049.66;5052374;28;20230;-79
2022/05/13 03:25:12;;;;;;;3.97;2.07;;;23.50;54.80;;;-142.21;79.55;112049.66;5052183;28;20221;-78
2022/05/13 03:27:40;;;;;;;2.67;2.37;;;23.50;55.00;;;-142.21;80.06;112049.66;5052378;28;20296;-78
2022/05/13 03:30:10;;;;;;;2.53;2.17;;;23.50;54.90;;;-142.21;82.05;112049.66;5052174;28;20202;-78
2022/05/13 03:32:38;;;;;;;3.57;2.20;;;23.50;55.50;;;-142.21;80.59;112049.66;5052799;28;20189;-79
2022/05/13 03:35:09;;;;;;;4.33;2.17;;;23.50;55.30;;;-142.21;80.77;112049.66;5051875;28;20292;-79
2022/05/13 03:37:37;;;;;;;2.83;2.17;;;23.50;55.20;;;-142.21;82.83;112049.66;5052187;28;20289;-78
2022/05/13 03:40:06;;;;;;;3.10;2.40;;;23.50;55.50;;;-142.21;82.20;112049.66;5051732;28;20209;-78
2022/05/13 03:42:33;;;;;;;3.30;2.50;;;23.50;55.60;;;-142.21;84.20;112049.66;5050692;28;20261;-78
2022/05/13 03:45:00;;;;;;;3.63;2.40;;;23.40;56.40;;;-142.21;84.60;112049.66;5051981;28;20730;-78
2022/05/13 03:47:27;;;;;;;3.80;3.20;;;23.30;56.20;;;-142.21;83.25;112049.66;5052586;28;20209;-78
2022/05/13 03:49:54;;;;;;;3.53;2.47;;;23.40;56.70;;;-142.21;85.69;112049.66;5051725;28;20209;-78
2022/05/13 03:52:23;;;;;;;3.17;2.57;;;23.30;56.80;;;-142.21;86.33;112049.66;5052300;28;20293;-79
2022/05/13 03:54:50;;;;;;;5.23;2.73;;;23.30;57.20;;;-142.21;85.33;112049.66;5051213;28;20252;-78
2022/05/13 03:57:17;;;;;;;3.63;2.30;;;23.30;57.10;;;-142.21;86.77;112049.66;5032664;28;20599;-79
2022/05/13 03:59:44;;;;;;;5.90;3.27;;;23.30;57.20;;;-142.21;86.47;112049.66;5031883;28;20591;-79
2022/05/13 04:02:12;;;;;;;2.70;2.50;;;23.30;57.10;;;-142.21;84.92;112049.66;5032185;28;20636;-79
2022/05/13 04:10:09;;;;;;;3.80;2.90;;;23.30;57.90;;;-142.21;91.53;112049.66;5033946;28;20217;-78
2022/05/13 04:18:06;;;;;;;7.20;4.00;;;23.30;60.80;;;-142.21;98.70;112049.66;5051064;28;20212;-78
2022/05/13 04:20:34;;;;;;;6.20;3.97;;;23.20;60.80;;;-142.21;99.30;112049.66;5052291;28;20244;-79
2022/05/13 04:23:03;;;;;;;6.60;3.90;;;23.20;60.80;;;-142.21;100.00;112049.66;5051059;28;20233;-77
2022/05/13 04:25:30;;;;;;;4.50;4.00;;;23.20;62.30;;;-142.21;100.00;112049.66;5051779;28;20260;-78
2022/05/13 04:27:58;;;;;;;7.73;4.40;;;23.10;64.10;;;-142.21;100.00;112049.66;5051450;28;20210;-80
2022/05/13 04:30:25;;;;;;;4.73;4.20;;;23.10;64.10;;;-142.21;100.00;112049.66;5051258;28;20237;-79
2022/05/13 04:32:52;;;;;;;6.93;5.40;;;23.10;64.20;;;-142.21;100.00;112049.66;5048054;28;20208;-79
2022/05/13 04:35:19;;;;;;;43.27;16.50;;;23.10;64.80;;;-142.21;100.00;112049.66;5050417;28;20220;-79
2022/05/13 04:37:47;;;;;;;34.87;12.57;;;23.10;65.50;;;-142.21;100.00;112049.66;5050223;28;20205;-79
2022/05/13 04:40:15;;;;;;;47.03;14.07;;;23.10;65.80;;;-142.21;100.00;112049.66;5050367;28;20206;-79
2022/05/13 04:42:50;;;;;;;51.17;17.30;;;23.10;66.00;;;-142.21;100.00;112049.66;5051014;28;20228;-77
2022/05/13 04:45:23;;;;;;;34.33;11.23;;;23.10;66.10;;;-142.21;100.00;112049.66;5050200;28;20233;-78
2022/05/13 04:50:42;;;;;;;5.23;4.53;;;22.90;67.30;;;-142.21;100.00;112049.66;5050799;28;20713;-78
2022/05/13 04:53:11;;;;;;;6.57;4.40;;;22.90;66.90;;;-142.21;100.00;112049.66;5050273;28;20244;-79
2022/05/13 04:55:40;;;;;;;4.80;4.37;;;22.90;65.80;;;-142.21;100.00;112049.66;5049335;28;20267;-79
2022/05/13 04:58:07;;;;;;;6.80;4.40;;;22.90;67.00;;;-142.21;100.00;112049.66;5054801;28;20324;-79
2022/05/13 05:00:35;;;;;;;6.77;4.13;;;22.90;67.30;;;-142.21;100.00;112049.66;5054791;28;20240;-78
2022/05/13 05:03:03;;;;;;;5.77;4.37;;;23.00;66.80;;;-142.21;100.00;112049.66;5053718;28;20226;-78
2022/05/13 05:05:31;;;;;;;5.50;4.63;;;23.00;66.40;;;-142.21;100.00;112049.66;5054390;28;20666;-78
2022/05/13 05:07:58;;;;;;;5.07;4.50;;;23.00;66.60;;;-142.21;100.00;112049.66;5053748;28;20210;-78
2022/05/13 05:10:26;;;;;;;5.63;4.33;;;23.00;66.00;;;-142.21;100.00;112049.66;5054696;28;20280;-79
2022/05/13 05:12:57;;;;;;;4.57;3.63;;;23.00;66.30;;;-142.21;100.00;112049.66;5053822;28;20294;-80
2022/05/13 05:15:27;;;;;;;4.87;3.50;;;23.00;65.30;;;-142.21;100.00;112049.66;5051205;28;20209;-78
2022/05/13 05:17:56;;;;;;;4.83;3.60;;;23.00;65.00;;;-142.21;100.00;112049.66;5053064;28;20285;-78
2022/05/13 05:20:24;;;;;;;4.70;3.57;;;23.00;65.60;;;-142.21;100.00;112049.66;5054782;28;20230;-79
2022/05/13 05:22:51;;;;;;;3.73;3.30;;;23.00;65.20;;;-142.21;100.00;112049.66;5054363;28;20260;-80
2022/05/13 05:25:22;;;;;;;6.00;3.67;;;23.00;66.00;;;-142.21;100.00;112049.66;5053872;28;20268;-78
2022/05/13 05:27:49;;;;;;;3.70;3.10;;;23.00;64.80;;;-142.21;100.00;112049.66;5054060;28;20200;-77
2022/05/13 05:30:18;;;;;;;3.30;3.00;;;23.00;64.10;;;-142.21;100.00;112049.66;5052633;28;20634;-76
2022/05/13 05:32:45;;;;;;;4.20;3.27;;;23.00;64.10;;;-142.21;100.00;112049.66;5054757;28;20244;-79
2022/05/13 05:35:16;;;;;;;5.37;3.73;;;22.90;63.50;;;-142.21;100.00;112049.66;5053209;28;20292;-80
2022/05/13 05:37:43;;;;;;;5.83;3.10;;;22.90;64.70;;;-142.21;100.00;112049.66;5054395;28;20301;-79
2022/05/13 05:40:14;;;;;;;6.63;3.30;;;22.90;63.90;;;-142.21;100.00;112049.66;5053076;28;20288;-78
2022/05/13 05:42:43;;;;;;;4.20;3.23;;;22.90;65.20;;;-142.21;100.00;112049.66;5053202;28;20297;-79
2022/05/13 05:45:14;;;;;;;4.10;2.73;;;22.90;64.00;;;-142.21;100.00;112049.66;5053192;28;20241;-79
2022/05/13 05:47:43;;;;;;;3.67;3.13;;;22.90;63.90;;;-142.21;100.00;112049.66;5054350;28;20209;-79
2022/05/13 05:50:17;;;;;;;4.40;3.07;;;22.90;63.80;;;-142.21;100.00;112049.66;5053333;28;20237;-77
2022/05/13 05:52:44;;;;;;;5.87;3.30;;;22.90;63.00;;;-142.21;100.00;112049.66;5054210;28;20190;-79
2022/05/13 05:58:03;;;;;;;4.83;2.80;;;22.90;64.00;;;-142.21;100.00;112049.66;5051488;28;20201;-78
2022/05/13 06:00:34;;;;;;;4.73;3.43;;;22.90;63.40;;;-142.21;100.00;112049.66;5052878;28;20286;-79
2022/05/13 06:03:03;;;;;;;3.47;3.17;;;23.00;62.90;;;-142.21;100.00;112049.66;5053921;28;20224;-78
2022/05/13 06:05:31;;;;;;;3.50;2.90;;;22.90;62.80;;;-142.21;100.00;112049.66;5052252;28;20216;-79
2022/05/13 06:08:01;;;;;;;5.23;2.90;;;22.90;62.70;;;-142.21;100.00;112049.66;5050229;28;20216;-79
2022/05/13 06:10:30;;;;;;;4.10;3.23;;;22.90;63.60;;;-142.21;100.00;112049.66;5050893;28;20206;-83
2022/05/13 06:12:58;;;;;;;6.43;3.40;;;22.90;63.00;;;-142.21;99.26;112049.66;5048131;28;20193;-81
2022/05/13 06:15:26;;;;;;;4.33;3.23;;;23.00;61.80;;;-142.21;100.00;112049.66;5053029;28;20711;-82
2022/05/13 06:17:57;;;;;;;7.30;3.40;;;23.00;63.40;;;-142.21;100.00;112049.66;5052531;28;20634;-80
2022/05/13 06:20:29;;;;;;;5.57;3.07;;;23.00;64.20;;;-142.21;100.00;112049.66;5053590;28;20317;-80
2022/05/13 06:22:57;;;;;;;4.30;3.00;;;23.00;63.10;;;-142.21;100.00;112049.66;5053307;28;20656;-80
2022/05/13 06:25:25;;;;;;;5.07;3.20;;;23.00;63.50;;;-142.21;100.00;112049.66;5052956;28;20292;-83
2022/05/13 06:27:55;;;;;;;3.53;3.23;;;23.00;64.40;;;-142.21;100.00;112049.66;5052605;28;20259;-82
2022/05/13 06:30:26;;;;;;;4.70;3.33;;;23.00;64.90;;;-142.21;100.00;112049.66;5053345;28;20609;-80
2022/05/13 06:32:54;;;;;;;3.73;2.90;;;23.00;64.40;;;-142.21;100.00;112049.66;5051264;28;20281;-80
2022/05/13 06:35:25;;;;;;;5.87;2.93;;;23.00;64.10;;;-142.21;100.00;112049.66;5052913;28;20236;-81
2022/05/13 06:37:52;;;;;;;7.23;3.97;;;23.10;63.80;;;-142.21;100.00;112049.66;5051627;28;20288;-80
2022/05/13 06:40:22;;;;;;;4.13;3.40;;;23.10;62.30;;;-142.21;100.00;112049.66;5053363;28;20210;-82
2022/05/13 06:42:50;;;;;;;4.67;2.97;;;23.10;62.60;;;-142.21;100.00;112049.66;5052700;28;20686;-80
2022/05/13 06:45:17;;;;;;;4.90;3.00;;;23.10;62.20;;;-142.21;100.00;112049.66;5052760;28;20248;-80
2022/05/13 06:47:44;;;;;;;5.43;3.10;;;23.20;62.60;;;-142.21;100.00;112049.66;5052451;28;20620;-81
2022/05/13 06:50:17;;;;;;;6.30;3.27;;;23.10;63.60;;;-142.21;100.00;112049.66;5052298;28;20233;-81
2022/05/13 06:52:47;;;;;;;7.57;3.43;;;23.10;64.20;;;-142.21;100.00;112049.66;5053041;28;20187;-81
2022/05/13 06:55:18;;;;;;;5.37;2.87;;;23.10;64.90;;;-142.21;100.00;112049.66;5051990;28;20297;-80
2022/05/13 06:57:45;;;;;;;6.67;3.23;;;23.20;64.50;;;-142.21;96.82;112049.66;5052176;28;20212;-81
2022/05/13 07:00:14;;;;;;;4.90;2.80;;;23.20;61.40;;;-142.21;94.26;112049.66;5051922;28;20562;-81
2022/05/13 07:02:43;;;;;;;6.27;2.90;;;23.20;60.00;;;-142.21;96.92;112049.66;5052283;28;20264;-80
2022/05/13 07:05:15;;;;;;;6.97;3.73;;;23.20;60.00;;;-142.21;97.26;112049.66;5052151;28;20296;-81
2022/05/13 07:07:42;;;;;;;6.57;2.87;;;23.20;60.70;;;-142.21;97.73;112049.66;5052317;28;20232;-81
2022/05/13 07:10:12;;;;;;;4.57;2.60;;;23.20;61.10;;;-142.21;96.04;112049.66;5051845;28;20658;-80
2022/05/13 07:12:40;;;;;;;2.53;2.30;;;23.10;59.90;;;-142.21;95.18;112049.66;5052192;28;20213;-81
2022/05/13 07:15:11;;;;;;;4.37;2.53;;;23.10;59.70;;;-142.21;89.35;112049.66;5051459;28;20229;-80
2022/05/13 07:17:39;;;;;;;5.17;2.70;;;23.20;58.10;;;-142.21;93.98;112049.66;5051486;28;20327;-81
2022/05/13 07:20:08;;;;;;;5.60;2.83;;;23.20;59.00;;;-142.21;90.78;112049.66;5051367;28;20264;-80
2022/05/13 07:22:36;;;;;;;3.77;2.60;;;23.20;58.20;;;-142.21;92.98;112049.66;5052188;28;20237;-81
2022/05/13 07:25:04;;;;;;;4.10;2.87;;;23.10;58.50;;;-142.21;92.23;112049.66;5051506;28;20237;-81
2022/05/13 07:27:33;;;;;;;3.87;2.43;;;23.10;58.80;;;-142.21;91.25;112049.66;5051682;28;20264;-82
2022/05/13 07:30:00;;;;;;;2.63;2.10;;;23.00;58.50;;;-142.21;88.48;112049.66;5051401;28;20686;-81
2022/05/13 07:32:27;;;;;;;4.13;2.10;;;23.10;57.90;;;-142.21;89.72;112049.66;5052019;28;20292;-81
2022/05/13 07:34:54;;;;;;;5.80;2.43;;;23.10;57.70;;;-142.21;89.33;112049.66;5051945;28;20674;-81
2022/05/13 07:37:21;;;;;;;4.67;2.43;;;23.10;57.90;;;-142.21;88.51;112049.66;5051986;28;20666;-81
2022/05/13 07:42:35;;;;;;;3.63;2.40;;;23.20;57.30;;;-142.21;90.37;112049.66;5051825;28;20306;-81
2022/05/13 07:45:02;;;;;;;3.30;2.60;;;23.20;57.60;;;-142.21;87.44;112049.66;5050999;28;20272;-81
2022/05/13 07:47:29;;;;;;;3.87;2.23;;;23.30;57.20;;;-142.21;89.08;112049.66;5051941;28;20213;-81
2022/05/13 07:49:58;;;;;;;6.53;2.77;;;23.30;57.20;;;-142.21;87.88;112049.66;5051522;28;20292;-80
2022/05/13 07:52:26;;;;;;;5.57;2.63;;;23.40;56.60;;;-142.21;85.15;112049.66;5051970;28;20293;-81
2022/05/13 07:54:54;;;;;;;4.73;2.20;;;23.50;56.10;;;-142.21;88.08;112049.66;5051238;28;20287;-80
2022/05/13 07:57:21;;;;;;;5.23;2.70;;;23.60;57.20;;;-142.21;83.53;112049.66;5051836;28;20209;-81
2022/05/13 08:02:34;;;;;;;5.40;3.03;;;23.80;56.30;;;-142.21;85.68;112049.66;5051734;28;20695;-80
2022/05/13 08:05:01;;;;;;;4.40;2.20;;;23.80;55.40;;;-142.21;81.85;112049.66;5051502;28;20668;-80
2022/05/13 08:07:29;;;;;;;3.90;2.57;;;23.90;55.00;;;-142.21;85.63;112049.66;5051856;28;20212;-81
2022/05/13 08:09:56;;;;;;;4.67;2.20;;;23.90;56.00;;;-142.21;83.61;112049.66;5051166;28;20248;-80
2022/05/13 08:12:24;;;;;;;4.40;2.07;;;23.90;55.80;;;-142.21;79.71;112049.66;5051921;28;20206;-81
2022/05/13 08:14:53;;;;;;;4.77;2.20;;;24.00;54.80;;;-142.21;74.65;112049.66;5033924;28;20208;-80
2022/05/13 08:17:20;;;;;;;7.00;2.37;;;24.10;53.50;;;-142.21;73.66;112049.66;5031098;28;20682;-77
2022/05/13 08:19:47;;;;;;;4.03;2.07;;;24.10;53.50;;;-142.21;79.03;112049.66;5031814;28;20589;-81
2022/05/13 08:22:14;;;;;;;3.83;2.57;;;24.00;54.20;;;-142.21;80.92;112049.66;5032305;28;20199;-79
2022/05/13 08:24:42;;;;;;;2.97;2.00;;;24.00;54.50;;;-142.21;79.96;112049.66;5040434;28;20304;-82
2022/05/13 08:27:09;;;;;;;3.90;2.13;;;24.00;55.00;;;-142.21;76.57;112049.66;5051096;28;20601;-80
2022/05/13 08:29:36;;;;;;;4.17;1.90;;;24.10;54.20;;;-142.21;72.75;112049.66;5054443;28;20726;-81
2022/05/13 08:32:06;;;;;;;2.77;1.70;;;24.10;53.00;;;-142.21;74.96;112049.66;5054703;28;20254;-81
2022/05/13 08:34:33;;;;;;;4.87;1.77;;;24.10;53.10;;;-142.21;64.32;112049.66;5055459;28;20261;-81
2022/05/13 08:37:00;;;;;;;2.70;2.00;;;24.20;51.20;;;-142.21;66.14;112049.66;5054722;28;20251;-81
2022/05/13 08:39:27;;;;;;;3.33;1.97;;;24.20;51.40;;;-142.21;67.94;112049.66;5054980;28;20293;-81
2022/05/13 08:42:17;;;;;;;4.00;2.17;;;24.40;51.60;;;-142.21;71.20;112049.66;5055899;28;20224;-80
2022/05/13 08:44:53;;;;;;;2.37;1.60;;;24.40;51.70;;;-142.21;62.52;112049.66;5055184;28;20217;-80
2022/05/13 08:47:29;;;;;;;5.47;2.27;;;24.50;50.60;;;-142.21;64.64;112049.66;5055003;28;20647;-80
2022/05/13 08:50:05;;;;;;;3.10;2.20;;;24.50;50.30;;;-142.21;60.58;112049.66;5055791;28;20181;-81
2022/05/13 08:55:37;;;;;;;5.23;1.97;;;24.60;49.30;;;-142.21;62.57;112049.66;5054981;28;20552;-79
2022/05/13 08:58:11;;;;;;;3.47;2.20;;;24.50;49.90;;;-142.21;64.48;112049.66;5054503;28;20259;-80
2022/05/13 09:00:44;;;;;;;5.07;2.00;;;24.60;50.10;;;-142.21;62.09;112049.66;5055058;28;20201;-80
2022/05/13 09:03:29;;;;;;;5.37;2.40;;;24.80;49.90;;;-142.21;63.16;112049.66;5054029;28;20195;-81
2022/05/13 09:06:04;;;;;;;6.03;1.97;;;24.70;49.60;;;-142.21;67.37;112049.66;5054971;28;20196;-81
2022/05/13 09:08:33;;;;;;;4.60;2.20;;;24.80;51.10;;;-142.21;64.81;112049.66;5054237;28;20275;-79
2022/05/13 09:11:21;;;;;;;3.23;2.10;;;25.00;50.40;;;-142.21;57.19;112049.66;5054398;28;20205;-81
2022/05/13 09:14:03;;;;;;;5.07;1.87;;;25.30;49.00;;;-142.21;60.99;112049.66;5019507;28;20225;-81
2022/05/13 09:16:50;;;;;;;3.80;2.40;;;25.50;49.60;;;-142.21;54.61;112049.66;5054389;28;20657;-80
2022/05/13 09:19:32;;;;;;;7.17;2.07;;;26.00;47.30;;;-142.21;56.60;112049.66;5053774;28;20235;-79
2022/05/13 09:21:59;;;;;;;3.63;1.80;;;26.10;48.60;;;-142.21;54.29;112049.66;5053974;28;20244;-79
2022/05/13 09:24:26;;;;;;;3.17;1.80;;;26.10;47.90;;;-142.21;51.14;112049.66;5047175;28;20650;-79
2022/05/13 09:26:56;;;;;;;2.73;1.60;;;26.10;46.80;;;-142.21;49.36;112049.66;5034165;28;20249;-79
2022/05/13 09:29:23;;;;;;;6.43;1.83;;;26.10;45.60;;;-142.21;52.16;112049.66;5034006;28;20256;-82
2022/05/13 09:32:07;;;;;;;2.23;1.43;;;26.10;47.40;;;-142.21;49.37;112049.66;5034234;28;20212;-80
2022/05/13 09:34:40;;;;;;;3.87;1.60;;;26.30;46.10;;;-142.21;48.96;112049.66;5034484;28;20520;-81
2022/05/13 09:37:18;;;;;;;3.10;1.90;;;26.30;45.80;;;-142.21;46.30;112049.66;5033239;28;20653;-78
2022/05/13 09:39:48;;;;;;;1.67;1.40;;;26.30;45.80;;;-142.21;49.66;112049.66;5033535;28;20186;-82
2022/05/13 09:42:21;;;;;;;3.40;1.70;;;26.50;46.80;;;-142.21;44.23;112049.66;5033683;28;20290;-80
2022/05/13 09:44:51;;;;;;;2.10;1.47;;;26.50;44.20;;;-142.21;43.10;112049.66;5033657;28;20250;-79
2022/05/13 09:47:32;;;;;;;3.53;1.77;;;26.60;44.20;;;-142.21;41.67;112049.66;5033602;28;20194;-79
2022/05/13 09:50:03;;;;;;;2.43;1.40;;;26.70;43.80;;;-142.21;41.41;112049.66;5033770;28;20273;-81
2022/05/13 09:52:36;;;;;;;2.77;1.70;;;26.70;42.80;;;-142.21;40.61;112049.66;5032327;28;20730;-80
2022/05/13 09:55:16;;;;;;;2.50;1.77;;;26.70;42.40;;;-142.21;39.53;112049.66;5033165;28;20656;-79
2022/05/13 09:57:44;;;;;;;5.53;1.60;;;26.80;43.00;;;-142.21;41.91;112049.66;5033970;28;20294;-80
2022/05/13 10:00:20;;;;;;;2.73;1.50;;;26.90;43.30;;;-142.21;43.39;112049.66;5033330;28;20202;-80
2022/05/13 10:03:05;;;;;;;5.97;1.70;;;26.90;44.20;;;-142.21;40.42;112049.66;5033617;28;20714;-80
2022/05/13 10:05:34;;;;;;;2.87;1.40;;;27.10;42.50;;;-142.21;43.28;112049.66;5033101;28;20301;-78
2022/05/13 10:08:08;;;;;;;4.50;1.60;;;27.40;43.90;;;-142.21;39.21;112049.66;5033539;28;20687;-80
2022/05/13 10:16:21;;;;;;;4.37;1.67;;;27.60;43.00;;;-142.21;39.03;112049.66;5052842;28;20189;-80
2022/05/13 10:18:56;;;;;;;7.83;1.57;;;27.60;42.30;;;-142.21;40.07;112049.66;5053358;28;20310;-81
2022/05/13 10:21:34;;;;;;;2.20;1.23;;;27.70;42.30;;;-142.21;40.88;112049.66;5052827;28;20248;-79
2022/05/13 10:24:21;;;;;;;2.83;1.70;;;27.70;42.50;;;-142.21;40.38;112049.66;5049661;28;20261;-80
2022/05/13 10:26:51;;;;;;;2.40;1.63;;;27.70;42.80;;;-142.21;42.16;112049.66;5032997;28;20624;-79
2022/05/13 10:29:27;;;;;;;2.00;1.50;;;27.70;43.20;;;-142.21;37.25;112049.66;5032731;28;20624;-78
2022/05/13 10:31:57;;;;;;;1.73;1.40;;;27.70;40.60;;;-142.21;38.34;112049.66;5033387;28;20222;-80
2022/05/13 10:34:31;;;;;;;4.30;1.70;;;27.70;40.90;;;-142.21;36.17;112049.66;5032004;28;20229;-81
2022/05/13 10:37:08;;;;;;;4.47;1.77;;;27.80;39.90;;;-142.21;37.15;112049.66;5033080;28;20196;-80
2022/05/13 10:39:44;;;;;;;2.97;1.90;;;27.80;39.50;;;-142.21;36.49;112049.66;5032767;28;20190;-80
2022/05/13 10:42:21;;;;;;;5.43;1.50;;;27.70;39.90;;;-142.21;40.39;112049.66;5032746;28;20190;-80
2022/05/13 10:44:56;;;;;;;3.77;1.60;;;27.70;42.10;;;-142.21;37.54;112049.66;5032666;28;20284;-80
2022/05/13 10:47:30;;;;;;;3.87;1.43;;;27.70;40.10;;;-142.21;35.97;112049.66;5032583;28;20205;-80